»·PEaware :: N5002T KBUR-KSBA

N5002T :: KBUR-KSBA

FLIGHT INFORMATION

Flight Status: Arrived
Operator: Privately registered:
United States
More flights under this callsign
Pilot: Hunter M. (19355)
Aircraft: CESSNA 172 SKYHAWK
(C172)
More flights by this aircraft type
Origin: KBUR Bob Hope-Burbank
United States
Destination: KSBA Santa Barbara Mun
United States
More flights between these airports :: More routes between these airports
Route: +FIM V186 DEANO V27 KWANG
File this flight plan on PilotEdge
Remarks:
Altitude:
(Current/Filed)
6,000ft
Speed:
(Current/Filed)
118kts
Departed: 30-Dec-18 02:55 PM
Arrived: 30-Dec-18 03:50 PM
Distance/Time
Traveled:
75nm/0:55
Distance/Time
To Go:
Arrived

Flight Plot

Page will automatically refresh every two minutes.


Map Options




Map Legend


Flown Route
Filed Route
Departure Airport
Arrival Airport
Navaid (VOR, NDB)
Fix

Horizontal Profiles

Position Reports

Time Latitude Longitude Heading Altitude Ground
Speed
30-Dec-18 14:22 34.195985 -118.366900 180 781ft 0kts
30-Dec-18 14:23 34.195985 -118.366900 180 781ft 0kts
30-Dec-18 14:24 34.195985 -118.366900 180 781ft 0kts
30-Dec-18 14:25 34.195985 -118.366900 180 781ft 0kts
30-Dec-18 14:26 34.195985 -118.366900 180 781ft 0kts
30-Dec-18 14:27 34.195985 -118.366900 180 781ft 0kts
30-Dec-18 14:28 34.195985 -118.366900 180 781ft 0kts
30-Dec-18 14:29 34.195985 -118.366900 180 781ft 0kts
30-Dec-18 14:30 34.195985 -118.366900 180 781ft 0kts
30-Dec-18 14:31 34.195985 -118.366900 180 781ft 0kts
30-Dec-18 14:32 34.195985 -118.366900 180 781ft 0kts
30-Dec-18 14:33 34.195985 -118.366900 180 781ft 0kts
30-Dec-18 14:34 34.195985 -118.366900 180 781ft 0kts
30-Dec-18 14:35 34.195985 -118.366900 180 781ft 0kts
30-Dec-18 14:36 34.195985 -118.366900 180 781ft 0kts
30-Dec-18 14:37 34.195985 -118.366900 180 781ft 0kts
30-Dec-18 14:38 34.195985 -118.366900 180 781ft 0kts
30-Dec-18 14:39 34.195985 -118.366900 180 781ft 0kts
30-Dec-18 14:40 34.195985 -118.366900 180 781ft 0kts
30-Dec-18 14:41 34.195985 -118.366900 180 781ft 0kts
30-Dec-18 14:42 34.195985 -118.366900 180 781ft 0kts
30-Dec-18 14:43 34.195985 -118.366900 180 781ft 0kts
30-Dec-18 14:44 34.195985 -118.366900 180 781ft 0kts
30-Dec-18 14:45 34.195985 -118.366900 180 781ft 0kts
30-Dec-18 14:46 34.195985 -118.366900 180 781ft 0kts
30-Dec-18 14:47 34.195985 -118.366900 180 781ft 0kts
30-Dec-18 14:48 34.195985 -118.366900 180 781ft 0kts
30-Dec-18 14:49 34.195985 -118.366900 180 781ft 0kts
30-Dec-18 14:50 34.196734 -118.366517 272 781ft 4kts
30-Dec-18 14:51 34.196745 -118.367393 272 781ft 4kts
30-Dec-18 14:52 34.197149 -118.368978 349 781ft 0kts
30-Dec-18 14:53 34.197150 -118.368978 349 781ft 0kts
30-Dec-18 14:54 34.197830 -118.363848 91 781ft 69kts
30-Dec-18 14:55 34.192436 -118.337448 175 1360ft 89kts
30-Dec-18 14:56 34.173673 -118.358603 222 2101ft 94kts
30-Dec-18 14:57 34.153834 -118.380224 222 2800ft 95kts
30-Dec-18 14:58 34.136881 -118.401309 291 3479ft 83kts
30-Dec-18 14:59 34.157424 -118.411070 340 4204ft 80kts
30-Dec-18 15:00 34.179019 -118.417704 341 4894ft 78kts
30-Dec-18 15:01 34.199562 -118.423863 336 5560ft 72kts
30-Dec-18 15:02 34.206933 -118.445107 291 6051ft 81kts
30-Dec-18 15:03 34.216999 -118.475324 294 6002ft 103kts
30-Dec-18 15:04 34.228046 -118.506871 293 5999ft 100kts
30-Dec-18 15:05 34.238598 -118.537383 293 5997ft 95kts
30-Dec-18 15:06 34.248730 -118.566811 293 6001ft 94kts
30-Dec-18 15:07 34.258874 -118.596245 294 6004ft 95kts
30-Dec-18 15:08 34.269004 -118.625657 294 6010ft 95kts
30-Dec-18 15:09 34.279136 -118.655099 294 5996ft 96kts
30-Dec-18 15:10 34.289426 -118.685029 294 5987ft 95kts
30-Dec-18 15:11 34.299612 -118.714692 294 5995ft 95kts
30-Dec-18 15:12 34.309680 -118.744040 294 6007ft 94kts
30-Dec-18 15:13 34.319797 -118.773552 294 6006ft 95kts
30-Dec-18 15:14 34.329909 -118.803076 294 6006ft 95kts
30-Dec-18 15:15 34.340034 -118.832673 294 6001ft 95kts
30-Dec-18 15:16 34.350221 -118.862473 294 5994ft 95kts
30-Dec-18 15:17 34.355858 -118.893257 268 6003ft 97kts
30-Dec-18 15:18 34.353424 -118.925963 268 6003ft 97kts
30-Dec-18 15:19 34.351018 -118.958824 269 6105ft 103kts
30-Dec-18 15:20 34.348275 -118.996305 268 5990ft 101kts
30-Dec-18 15:21 34.345810 -119.029337 268 6006ft 97kts
30-Dec-18 15:22 34.343387 -119.062049 268 6008ft 97kts
30-Dec-18 15:23 34.340956 -119.094787 268 6010ft 97kts
30-Dec-18 15:24 34.338516 -119.127548 268 6009ft 97kts
30-Dec-18 15:25 34.336063 -119.160354 268 6009ft 97kts
30-Dec-18 15:26 34.333611 -119.193019 268 6009ft 97kts
30-Dec-18 15:27 34.331245 -119.224433 268 6009ft 97kts
30-Dec-18 15:28 34.328784 -119.257243 268 6009ft 97kts
30-Dec-18 15:29 34.326302 -119.289997 268 6009ft 97kts
30-Dec-18 15:30 34.323806 -119.322791 268 6008ft 97kts
30-Dec-18 15:31 34.321304 -119.355549 268 6009ft 97kts
30-Dec-18 15:32 34.318789 -119.388339 268 5995ft 97kts
30-Dec-18 15:33 34.316263 -119.421393 267 5405ft 98kts
30-Dec-18 15:34 34.313730 -119.454320 267 4795ft 98kts
30-Dec-18 15:35 34.311207 -119.487211 266 4184ft 98kts
30-Dec-18 15:36 34.310429 -119.518210 294 3998ft 85kts
30-Dec-18 15:37 34.320416 -119.545720 295 3505ft 93kts
30-Dec-18 15:39 34.331011 -119.575171 294 2868ft 96kts
30-Dec-18 15:40 34.341249 -119.603663 288 2201ft 90kts
30-Dec-18 15:41 34.349982 -119.628342 287 2122ft 79kts
30-Dec-18 15:42 34.359654 -119.655273 289 2101ft 90kts
30-Dec-18 15:43 34.371742 -119.681427 294 2158ft 87kts
30-Dec-18 15:44 34.381266 -119.708584 287 2208ft 86kts
30-Dec-18 15:45 34.390009 -119.736039 287 2099ft 88kts
30-Dec-18 15:46 34.401736 -119.758972 311 1430ft 84kts
30-Dec-18 15:47 34.419015 -119.776927 319 1147ft 79kts
30-Dec-18 15:48 34.428811 -119.800574 266 742ft 72kts
30-Dec-18 15:49 34.428223 -119.823386 261 217ft 62kts
30-Dec-18 15:50 34.427863 -119.837442 273 13ft 12kts
30-Dec-18 15:51 34.428514 -119.838124 339 13ft 0kts
30-Dec-18 15:52 34.428529 -119.838130 338 13ft 0kts
30-Dec-18 15:53 34.429810 -119.838556 331 13ft 14kts
30-Dec-18 15:54 34.431863 -119.837333 320 13ft 0kts
30-Dec-18 15:55 34.432171 -119.837511 339 13ft 0kts
30-Dec-18 15:55 34.432171 -119.837511 339 13ft 0kts
30-Dec-18 15:57 34.432171 -119.837511 339 13ft 0kts

Navigation Log

Ident Type
Flight plan parsing failed, navigation log unavailable